Portada
METAR-TAF:

METAR-TAF

Aeropuertos :

Montichiari

Brescia, Italia

latitud: 45-24-02N, longitud: 010-18-59E, altitud: 104 m

Observación

El informe se hizo hace 23 minutos, a las 11:50 UTC
Viento 6 kt del oeste, variando entre suroeste y oeste-noroeste
Temperatura 11°C
Humedad 22%
Presión 1010 hPa
Visibilidad 10 km o más
sin nubes por debajo de 1500 m y sin presencia de cumulonimbus.

METAR: LIPO 271150Z 26006KT 220V290 CAVOK 11/M10 Q1010

Hora: 13:13 (12:13 UTC)

Pronóstico

El informe se hizo hace 1 hora y 13 minutos, a las 11:00 UTC
Pronóstico válido del 27 a las 12 UTC al 28 a las 12 UTC
Viento 6 kt del oeste
Visibilidad 10 km o más
sin nubes por debajo de 1500 m y sin presencia de cumulonimbus.

TAF: LIPO 271100Z 2712/2812 26006KT CAVOK

Observaciones y pronósticos meteorológicos de más de 4000 aeropuertos (mensajes METAR y TAF).

Los puntos amarillos y rojos representan las estaciones disponibles.

Ponga el ratón en el punto deseado para ver el nombre de la estación.

Haga clic para ver las observaciones y los pronósticos meteorológicos.

Para cambiar el mapa : haga clic en los botones verdes con una cruz de color negro para hacer un zoom, en el botón verde con un guión para alejar o en las flechas verdes para mapas adyacentes.


METAR-TAF: